Time;durP1;ratioP1;P1;durP2;ratioP2;P2;SDS_P1;SDS_P2;PMS_P1;PMS_P2;Temp;Humidity;BMP_temperature;BMP_pressure;BME280_temperature;BME280_humidity;BME280_pressure;Samples;Min_cycle;Max_cycle;Signal;HPM_P1;HPM_P2
2021/07/02 00:00:32;;;;;;;10.38;5.37;;;;;;;14.58;89.57;94145.66;1706803;84;21140;-57
2021/07/02 00:03:00;;;;;;;10.18;5.30;;;;;;;14.59;89.79;94140.25;1706945;84;21428;-57
2021/07/02 00:05:27;;;;;;;7.72;4.50;;;;;;;14.67;90.16;94148.25;1704506;82;21066;-57
2021/07/02 00:07:54;;;;;;;7.60;4.20;;;;;;;14.74;90.09;94140.92;1708454;83;21020;-56
2021/07/02 00:10:20;;;;;;;14.87;4.95;;;;;;;14.82;89.93;94139.22;1709165;82;21086;-56
2021/07/02 00:12:47;;;;;;;12.73;5.10;;;;;;;14.84;89.82;94140.13;1709724;83;21142;-57
2021/07/02 00:15:14;;;;;;;25.27;6.85;;;;;;;14.84;89.93;94143.65;1702408;83;21000;-58
2021/07/02 00:17:40;;;;;;;15.78;5.42;;;;;;;14.84;90.14;94131.83;1707026;84;21492;-57
2021/07/02 00:20:10;;;;;;;7.95;4.47;;;;;;;14.90;90.40;94124.32;1703361;83;21565;-57
2021/07/02 00:22:37;;;;;;;9.60;4.30;;;;;;;14.98;90.37;94117.11;1700783;83;21041;-57
2021/07/02 00:25:04;;;;;;;8.33;3.85;;;;;;;15.04;90.23;94109.59;1703494;83;21222;-56
2021/07/02 00:27:31;;;;;;;8.18;4.50;;;;;;;15.08;90.35;94107.36;1703173;82;21490;-57
2021/07/02 00:29:58;;;;;;;14.93;5.67;;;;;;;15.13;89.97;94099.71;1705871;83;21052;-58
2021/07/02 00:32:25;;;;;;;9.35;4.42;;;;;;;15.09;89.74;94097.18;1712802;83;21035;-57
2021/07/02 00:34:52;;;;;;;8.23;4.08;;;;;;;15.11;89.63;94093.29;1709169;82;21070;-55
2021/07/02 00:37:19;;;;;;;9.98;4.30;;;;;;;15.11;89.54;94094.67;1700193;84;21771;-57
2021/07/02 00:39:45;;;;;;;8.05;4.42;;;;;;;15.13;89.56;94094.94;1706714;83;21590;-57
2021/07/02 00:42:12;;;;;;;9.90;4.35;;;;;;;15.19;89.62;94104.69;1697573;82;21553;-56
2021/07/02 00:44:47;;;;;;;9.88;5.10;;;;;;;15.24;89.75;94103.97;1712068;83;21468;-58
2021/07/02 00:47:16;;;;;;;10.08;4.15;;;;;;;15.32;89.55;94106.47;1707050;83;21023;-56
2021/07/02 00:49:43;;;;;;;10.20;4.22;;;;;;;15.36;89.50;94107.00;1702933;83;21745;-57
2021/07/02 00:52:11;;;;;;;5.47;4.50;;;;;;;15.38;89.35;94112.16;1709875;83;21570;-56
2021/07/02 00:54:40;;;;;;;6.08;4.50;;;;;;;15.41;89.32;94115.36;1707023;83;21000;-57
2021/07/02 00:57:09;;;;;;;6.20;3.67;;;;;;;15.41;89.35;94107.04;1691601;84;21082;-54
2021/07/02 00:59:40;;;;;;;8.38;3.67;;;;;;;15.43;89.16;94105.92;1719494;82;21015;-56
2021/07/02 01:02:07;;;;;;;10.15;4.15;;;;;;;15.46;89.06;94106.92;1677386;84;21103;-57
2021/07/02 01:04:35;;;;;;;6.87;4.00;;;;;;;15.50;89.04;94110.22;1679655;84;21080;-56
2021/07/02 01:07:04;;;;;;;9.33;4.17;;;;;;;15.53;88.83;94104.45;1698811;82;21068;-56
2021/07/02 01:09:31;;;;;;;14.73;4.28;;;;;;;15.56;88.73;94096.53;1709602;82;21598;-56
2021/07/02 01:12:00;;;;;;;6.00;3.40;;;;;;;15.57;88.49;94092.50;1707033;83;22364;-57
2021/07/02 01:14:29;;;;;;;6.25;3.80;;;;;;;15.58;88.27;94098.83;1700778;83;21174;-56
2021/07/02 01:16:57;;;;;;;6.60;3.72;;;;;;;15.59;88.30;94102.50;1713585;82;21012;-57
2021/07/02 01:19:26;;;;;;;5.50;3.90;;;;;;;15.57;87.91;94098.05;1700075;82;21042;-56
2021/07/02 01:21:55;;;;;;;9.50;3.90;;;;;;;15.53;87.67;94100.30;1693781;83;21086;-55
2021/07/02 01:24:23;;;;;;;9.33;3.80;;;;;;;15.49;87.57;94104.55;1706855;83;21047;-55
2021/07/02 01:26:50;;;;;;;9.98;3.58;;;;;;;15.48;87.50;94099.64;1700986;82;21179;-56
2021/07/02 01:29:18;;;;;;;15.18;4.03;;;;;;;15.51;87.57;94102.06;1687788;83;21070;-56
2021/07/02 01:31:45;;;;;;;24.60;5.03;;;;;;;15.50;87.47;94094.97;1711827;83;21078;-55
2021/07/02 01:34:12;;;;;;;12.40;3.80;;;;;;;15.46;87.50;94093.06;1716009;82;20995;-55
2021/07/02 01:36:41;;;;;;;17.27;4.62;;;;;;;15.43;87.70;94100.98;1710266;83;20960;-56
2021/07/02 01:39:10;;;;;;;12.18;4.05;;;;;;;15.40;87.96;94104.75;1700814;82;21160;-55
2021/07/02 01:41:37;;;;;;;9.85;3.62;;;;;;;15.42;88.14;94108.56;1707856;83;21025;-55
2021/07/02 01:44:05;;;;;;;6.75;4.30;;;;;;;15.43;88.20;94114.23;1698840;82;21109;-57
2021/07/02 01:46:32;;;;;;;8.83;3.92;;;;;;;15.41;88.29;94112.58;1710138;83;21115;-55
2021/07/02 01:49:00;;;;;;;7.28;4.62;;;;;;;15.38;88.46;94117.70;1703225;83;21160;-57
2021/07/02 01:51:29;;;;;;;5.97;4.10;;;;;;;15.40;88.43;94113.06;1676528;84;21252;-57
2021/07/02 01:53:57;;;;;;;7.25;3.87;;;;;;;15.44;88.53;94112.98;1703531;82;21106;-55
2021/07/02 01:56:25;;;;;;;6.70;3.87;;;;;;;15.47;88.17;94113.38;1716095;83;21035;-55
2021/07/02 01:58:54;;;;;;;6.97;3.87;;;;;;;15.45;88.24;94121.43;1706979;83;21039;-57
2021/07/02 02:01:28;;;;;;;6.58;4.75;;;;;;;15.45;88.10;94122.81;1703449;83;21528;-55
2021/07/02 02:03:56;;;;;;;10.30;4.10;;;;;;;15.45;87.89;94129.74;1695055;83;21153;-56
2021/07/02 02:06:25;;;;;;;5.47;3.87;;;;;;;15.44;87.77;94133.77;1709885;82;21124;-55
2021/07/02 02:08:52;;;;;;;7.95;4.08;;;;;;;15.48;87.80;94125.98;1696401;83;21018;-56
2021/07/02 02:11:19;;;;;;;4.97;3.52;;;;;;;15.53;87.55;94121.73;1701734;82;21126;-56
2021/07/02 02:13:48;;;;;;;8.80;3.58;;;;;;;15.55;87.38;94113.68;1694921;83;21693;-55
2021/07/02 02:16:16;;;;;;;9.43;3.35;;;;;;;15.57;87.54;94114.69;1711776;83;21051;-55
2021/07/02 02:18:45;;;;;;;6.22;3.80;;;;;;;15.60;87.32;94122.04;1706978;83;21640;-56
2021/07/02 02:21:14;;;;;;;8.33;4.20;;;;;;;15.62;86.96;94134.01;1673573;83;21550;-57
2021/07/02 02:23:42;;;;;;;5.25;3.90;;;;;;;15.61;86.98;94122.17;1705976;83;21131;-56
2021/07/02 02:26:11;;;;;;;4.65;3.80;;;;;;;15.62;86.97;94122.30;1705778;81;20971;-56
2021/07/02 02:28:38;;;;;;;5.58;3.40;;;;;;;15.59;86.84;94130.23;1699553;82;21153;-56
2021/07/02 02:31:05;;;;;;;4.47;3.20;;;;;;;15.57;86.91;94134.09;1680597;83;21007;-55
2021/07/02 02:33:33;;;;;;;3.45;3.15;;;;;;;15.58;86.86;94142.55;1713863;82;21055;-55
2021/07/02 02:36:00;;;;;;;4.67;3.55;;;;;;;15.61;86.88;94143.58;1707585;83;21063;-56
2021/07/02 02:38:27;;;;;;;8.73;3.40;;;;;;;15.65;86.82;94144.88;1704702;83;21095;-56
2021/07/02 02:40:55;;;;;;;8.78;4.25;;;;;;;15.73;86.80;94143.80;1697254;82;21134;-55
2021/07/02 02:43:22;;;;;;;5.75;3.65;;;;;;;15.80;86.40;94152.42;1702954;82;21035;-54
2021/07/02 02:45:49;;;;;;;9.10;3.17;;;;;;;15.87;86.02;94158.89;1691909;83;21536;-55
2021/07/02 02:48:17;;;;;;;4.22;3.17;;;;;;;15.90;85.88;94165.47;1695776;83;21052;-55
2021/07/02 02:50:44;;;;;;;8.25;3.77;;;;;;;15.92;86.03;94161.57;1699502;82;21077;-57
2021/07/02 02:53:11;;;;;;;4.45;3.92;;;;;;;15.87;86.17;94163.05;1703327;84;21257;-56
2021/07/02 02:55:38;;;;;;;6.53;3.50;;;;;;;15.84;86.29;94165.43;1706689;83;21004;-56
2021/07/02 02:58:06;;;;;;;6.50;2.95;;;;;;;15.86;86.41;94169.85;1666232;84;21050;-56
2021/07/02 03:00:34;;;;;;;4.08;3.30;;;;;;;15.86;86.06;94175.40;1707332;82;21122;-56
2021/07/02 03:03:01;;;;;;;6.97;3.60;;;;;;;15.84;85.71;94180.69;1708835;83;21079;-56
2021/07/02 03:05:28;;;;;;;5.55;3.00;;;;;;;15.79;85.56;94178.64;1707052;84;21915;-56
2021/07/02 03:07:56;;;;;;;9.28;3.52;;;;;;;15.74;85.37;94182.12;1702690;82;21549;-57
2021/07/02 03:10:25;;;;;;;11.38;3.62;;;;;;;15.72;85.33;94184.63;1686774;83;21095;-56
2021/07/02 03:12:53;;;;;;;19.98;4.50;;;;;;;15.73;85.23;94191.69;1700089;83;21627;-54
2021/07/02 03:15:20;;;;;;;12.37;3.52;;;;;;;15.74;85.39;94192.47;1636410;84;21096;-54
2021/07/02 03:17:48;;;;;;;4.50;3.20;;;;;;;15.74;85.53;94180.73;1705162;82;21175;-55
2021/07/02 03:20:15;;;;;;;16.82;3.85;;;;;;;15.77;85.21;94176.97;1706282;82;21531;-56
2021/07/02 03:22:42;;;;;;;7.67;3.20;;;;;;;15.77;85.02;94181.12;1702739;82;20974;-58
2021/07/02 03:25:10;;;;;;;5.90;3.00;;;;;;;15.78;84.85;94179.90;1698870;83;21490;-56
2021/07/02 03:27:38;;;;;;;11.85;3.30;;;;;;;15.79;84.55;94186.19;1698665;82;21048;-54
2021/07/02 03:30:09;;;;;;;8.15;3.35;;;;;;;15.81;84.65;94180.30;1699082;83;21132;-57
2021/07/02 03:32:38;;;;;;;5.37;3.00;;;;;;;15.80;84.72;94181.55;1662500;84;21024;-57
2021/07/02 03:35:07;;;;;;;5.03;2.75;;;;;;;15.74;84.76;94171.02;1695448;82;21592;-54
2021/07/02 03:37:34;;;;;;;18.98;3.80;;;;;;;15.69;84.90;94173.78;1675516;84;21059;-55
2021/07/02 03:40:06;;;;;;;4.35;2.72;;;;;;;15.66;85.02;94167.81;1680630;82;21092;-55
2021/07/02 03:42:33;;;;;;;7.75;3.33;;;;;;;15.67;85.06;94172.88;1706944;83;21827;-55
2021/07/02 03:45:02;;;;;;;4.92;3.42;;;;;;;15.68;85.04;94156.37;1706820;83;21071;-54
2021/07/02 03:47:30;;;;;;;44.42;5.05;;;;;;;15.73;85.10;94150.73;1706714;83;21594;-55
2021/07/02 03:49:57;;;;;;;8.35;3.27;;;;;;;15.77;84.99;94153.39;1706820;84;21063;-56
2021/07/02 03:52:24;;;;;;;5.28;3.47;;;;;;;15.83;85.04;94143.72;1712918;82;21542;-56
2021/07/02 03:54:51;;;;;;;8.03;4.20;;;;;;;15.87;84.97;94143.62;1701175;82;21145;-55
2021/07/02 03:57:19;;;;;;;5.37;3.27;;;;;;;15.91;85.00;94146.19;1707809;82;21058;-55
2021/07/02 03:59:51;;;;;;;9.63;3.70;;;;;;;15.92;84.98;94142.16;1702546;83;21071;-56
2021/07/02 04:02:18;;;;;;;9.63;4.03;;;;;;;15.97;84.89;94140.80;1707002;83;21123;-58
2021/07/02 04:04:45;;;;;;;4.03;3.17;;;;;;;16.02;84.57;94141.45;1706933;84;21082;-54
2021/07/02 04:07:12;;;;;;;3.65;2.98;;;;;;;16.01;84.24;94144.09;1697372;83;21157;-57
2021/07/02 04:09:40;;;;;;;6.45;3.55;;;;;;;15.98;84.03;94152.64;1698836;82;20978;-55
2021/07/02 04:12:08;;;;;;;8.18;4.08;;;;;;;15.93;84.12;94158.28;1704704;83;21683;-54
2021/07/02 04:14:35;;;;;;;6.72;3.58;;;;;;;15.95;84.56;94156.41;1713557;83;21011;-56
2021/07/02 04:17:02;;;;;;;7.67;3.42;;;;;;;16.00;84.82;94157.84;1708364;83;21522;-55
2021/07/02 04:19:29;;;;;;;10.55;3.20;;;;;;;16.03;84.83;94163.01;1707675;83;21142;-56
2021/07/02 04:21:57;;;;;;;8.05;3.45;;;;;;;16.03;84.92;94159.62;1702384;82;21511;-55
2021/07/02 04:24:26;;;;;;;4.80;2.83;;;;;;;16.09;84.71;94155.49;1708191;82;21064;-55
2021/07/02 04:26:52;;;;;;;9.50;3.52;;;;;;;16.12;84.60;94153.85;1706275;82;21055;-54
2021/07/02 04:29:21;;;;;;;7.00;3.40;;;;;;;16.16;84.43;94150.85;1693226;82;37412;-55
2021/07/02 04:31:48;;;;;;;6.85;3.60;;;;;;;16.21;84.29;94146.72;1705936;82;21065;-55
2021/07/02 04:34:15;;;;;;;3.83;3.17;;;;;;;16.27;84.11;94143.33;1702218;83;21105;-54
2021/07/02 04:36:43;;;;;;;12.43;4.67;;;;;;;16.30;84.08;94150.05;1702416;83;21618;-56
2021/07/02 04:39:12;;;;;;;5.00;3.90;;;;;;;16.30;84.23;94144.49;1706535;83;21095;-57
2021/07/02 04:41:39;;;;;;;11.28;3.83;;;;;;;16.34;83.97;94145.66;1705206;83;21071;-55
2021/07/02 04:44:06;;;;;;;8.43;3.42;;;;;;;16.42;83.76;94152.27;1710775;82;21842;-55
2021/07/02 04:46:32;;;;;;;5.60;3.15;;;;;;;16.49;83.50;94143.45;1710995;83;21066;-55
2021/07/02 04:49:01;;;;;;;6.58;3.60;;;;;;;16.57;83.45;94141.08;1698456;82;21128;-56
2021/07/02 04:51:28;;;;;;;7.08;3.52;;;;;;;16.64;82.80;94139.84;1705670;83;20990;-55
2021/07/02 04:53:54;;;;;;;6.10;3.60;;;;;;;16.71;82.21;94128.27;1673014;85;21022;-55
2021/07/02 04:56:21;;;;;;;7.33;4.12;;;;;;;16.76;81.82;94137.23;1695744;82;21824;-55
2021/07/02 04:58:54;;;;;;;12.50;4.00;;;;;;;16.77;81.37;94128.38;1706362;83;21064;-55
2021/07/02 05:01:17;;;;;;;8.13;3.90;;;;;;;16.76;80.88;94124.09;1707667;83;21571;-55
2021/07/02 05:03:45;;;;;;;8.23;4.60;;;;;;;16.73;80.49;94121.58;1702454;83;21071;-56
2021/07/02 05:06:12;;;;;;;8.18;4.42;;;;;;;16.72;80.48;94126.36;1665369;84;21576;-57
2021/07/02 05:08:39;;;;;;;11.88;4.42;;;;;;;16.76;80.39;94126.13;1685883;84;21161;-55
2021/07/02 05:11:10;;;;;;;14.45;5.40;;;;;;;16.83;80.00;94124.23;1685485;84;21069;-55
2021/07/02 05:13:38;;;;;;;12.60;5.62;;;;;;;16.89;79.77;94129.19;1671915;84;21021;-54
2021/07/02 05:16:06;;;;;;;16.10;6.53;;;;;;;16.96;79.55;94128.69;1662394;84;21120;-55
2021/07/02 05:18:33;;;;;;;12.20;6.05;;;;;;;16.99;79.30;94120.11;1661201;84;21187;-56
2021/07/02 05:21:01;;;;;;;10.20;5.40;;;;;;;17.03;79.23;94115.06;1669670;84;21153;-56
2021/07/02 05:23:28;;;;;;;9.60;4.75;;;;;;;17.04;79.21;94117.19;1675720;84;21006;-56
2021/07/02 05:25:55;;;;;;;7.67;3.90;;;;;;;17.09;79.25;94120.62;1659362;84;21017;-58
2021/07/02 05:28:22;;;;;;;10.45;3.98;;;;;;;17.15;78.90;94117.98;1655419;85;21517;-54
2021/07/02 05:30:48;;;;;;;6.25;4.12;;;;;;;17.26;78.75;94120.02;1714518;82;21117;-56
2021/07/02 05:33:15;;;;;;;18.45;5.87;;;;;;;17.37;79.00;94115.23;1708731;82;21069;-56
2021/07/02 05:35:42;;;;;;;29.63;7.28;;;;;;;17.46;78.78;94118.39;1734315;82;21088;-55
2021/07/02 05:38:09;;;;;;;9.63;5.17;;;;;;;17.58;78.23;94115.72;1688435;83;20988;-58
2021/07/02 05:40:35;;;;;;;13.25;4.55;;;;;;;17.64;77.33;94120.02;1666026;85;21067;-56
2021/07/02 05:43:02;;;;;;;17.15;5.65;;;;;;;17.68;77.00;94120.51;1699104;84;20967;-55
2021/07/02 05:45:29;;;;;;;8.95;4.65;;;;;;;17.72;77.11;94120.26;1677992;84;21096;-55
2021/07/02 05:48:00;;;;;;;5.80;4.62;;;;;;;17.80;77.82;94121.28;1673157;84;21076;-55
2021/07/02 05:50:27;;;;;;;6.22;3.30;;;;;;;17.81;77.59;94112.41;1684271;84;21178;-56
2021/07/02 05:52:57;;;;;;;11.97;3.80;;;;;;;17.88;77.60;94119.48;1661362;84;21052;-59
2021/07/02 05:55:25;;;;;;;3.90;3.00;;;;;;;17.94;77.64;94117.44;1668762;84;21153;-55
2021/07/02 05:57:51;;;;;;;5.33;3.45;;;;;;;18.00;77.41;94120.98;1669681;84;21327;-58
2021/07/02 06:00:20;;;;;;;8.50;4.05;;;;;;;18.05;76.91;94127.16;1646991;84;21046;-61
2021/07/02 06:02:47;;;;;;;5.37;3.60;;;;;;;18.09;76.10;94118.68;1716013;81;21569;-56
2021/07/02 06:05:13;;;;;;;9.55;4.33;;;;;;;18.06;75.38;94125.27;1706194;81;21037;-59
2021/07/02 06:07:46;;;;;;;7.62;3.95;;;;;;;18.02;75.21;94124.75;1705081;81;21058;-56
2021/07/02 06:10:16;;;;;;;6.97;3.72;;;;;;;18.09;75.22;94120.69;1704428;82;21042;-58
2021/07/02 06:12:43;;;;;;;4.22;2.92;;;;;;;18.19;75.14;94127.63;1703478;82;21055;-60
2021/07/02 06:15:12;;;;;;;4.83;3.60;;;;;;;18.32;74.70;94116.71;1648947;84;21057;-57
2021/07/02 06:17:44;;;;;;;9.43;3.47;;;;;;;18.41;74.36;94131.76;1668763;83;21151;-56
2021/07/02 06:20:11;;;;;;;5.22;3.72;;;;;;;18.46;73.80;94129.58;1664032;83;21105;-57
2021/07/02 06:22:38;;;;;;;7.15;3.87;;;;;;;18.47;73.66;94133.88;1676885;84;21780;-59
2021/07/02 06:25:07;;;;;;;7.40;4.15;;;;;;;18.50;73.73;94138.42;1658293;84;21052;-57
2021/07/02 06:27:34;;;;;;;7.80;3.60;;;;;;;18.54;73.56;94134.75;1663366;84;21037;-55
2021/07/02 06:30:01;;;;;;;5.15;3.75;;;;;;;18.58;73.63;94131.05;1661856;84;21114;-58
2021/07/02 06:32:27;;;;;;;11.65;3.55;;;;;;;18.60;73.27;94128.52;1686425;82;21057;-52
2021/07/02 06:34:54;;;;;;;8.08;3.80;;;;;;;18.63;73.30;94128.88;1710719;82;21134;-61
2021/07/02 06:37:21;;;;;;;8.48;4.37;;;;;;;18.67;72.94;94127.96;1710204;82;21102;-59
2021/07/02 06:39:50;;;;;;;7.80;3.70;;;;;;;18.67;72.93;94127.96;1703606;82;21037;-60
2021/07/02 06:42:16;;;;;;;10.13;3.92;;;;;;;18.71;73.56;94136.06;1718192;81;21619;-55
2021/07/02 06:44:43;;;;;;;11.00;4.50;;;;;;;18.73;72.97;94135.67;1689269;82;21252;-59
2021/07/02 06:47:10;;;;;;;10.63;4.28;;;;;;;18.78;72.88;94128.54;1673106;83;21156;-60
2021/07/02 06:49:39;;;;;;;31.75;10.38;;;;;;;18.85;72.52;94127.36;1701628;81;21055;-59
2021/07/02 06:52:07;;;;;;;7.85;3.62;;;;;;;18.95;72.17;94128.59;1703032;82;21080;-59
2021/07/02 06:54:35;;;;;;;7.65;3.20;;;;;;;19.08;71.75;94131.55;1674746;83;21571;-57
2021/07/02 06:57:02;;;;;;;12.75;3.80;;;;;;;19.17;71.19;94124.28;1702571;82;21022;-63
2021/07/02 06:59:32;;;;;;;4.17;3.17;;;;;;;19.20;70.99;94121.85;1703443;82;22246;-59
2021/07/02 07:02:00;;;;;;;45.67;5.55;;;;;;;19.28;70.34;94120.03;1706944;82;21041;-67
2021/07/02 07:04:33;;;;;;;12.23;3.80;;;;;;;19.37;70.04;94122.48;1679256;83;20999;-61
2021/07/02 07:06:56;;;;;;;5.50;3.52;;;;;;;19.46;69.98;94124.20;1696039;82;21042;-60
2021/07/02 07:09:23;;;;;;;6.65;3.20;;;;;;;19.56;69.44;94128.93;1709874;82;21695;-61
2021/07/02 07:11:52;;;;;;;10.82;4.10;;;;;;;19.61;69.11;94131.56;1707275;82;20998;-59
2021/07/02 07:14:19;;;;;;;11.97;4.33;;;;;;;19.63;69.00;94135.36;1703935;81;21136;-57
2021/07/02 07:16:47;;;;;;;15.80;8.03;;;;;;;19.74;69.08;94137.30;1638414;83;21395;-64
2021/07/02 07:19:14;;;;;;;10.95;3.67;;;;;;;19.79;68.87;94140.05;1642270;85;21074;-60
2021/07/02 07:21:41;;;;;;;4.67;3.20;;;;;;;19.84;68.59;94137.84;1674431;83;21153;-59
2021/07/02 07:24:08;;;;;;;10.53;4.37;;;;;;;19.87;68.42;94134.00;1641870;84;21158;-58
2021/07/02 07:26:35;;;;;;;8.93;4.28;;;;;;;19.94;68.29;94140.39;1626612;85;21085;-56
2021/07/02 07:29:04;;;;;;;12.78;4.30;;;;;;;20.02;68.46;94133.00;1651172;84;21133;-58
2021/07/02 07:31:30;;;;;;;21.12;5.08;;;;;;;20.11;68.16;94134.04;1677363;83;21022;-58
2021/07/02 07:33:58;;;;;;;9.98;3.75;;;;;;;20.19;68.19;94130.80;1700611;82;21058;-60
2021/07/02 07:36:27;;;;;;;6.80;4.50;;;;;;;20.28;68.20;94131.20;1647027;83;21166;-60
2021/07/02 07:38:54;;;;;;;5.42;3.30;;;;;;;20.37;68.98;94126.64;1645607;85;21018;-59
2021/07/02 07:41:23;;;;;;;10.40;3.98;;;;;;;20.49;68.70;94128.03;1707560;82;21150;-59
2021/07/02 07:43:51;;;;;;;6.58;3.83;;;;;;;20.60;69.20;94124.35;1701116;82;20997;-58
2021/07/02 07:46:18;;;;;;;4.85;3.33;;;;;;;20.69;68.25;94126.14;1722981;81;21073;-56
2021/07/02 07:48:45;;;;;;;5.55;4.15;;;;;;;20.81;67.32;94122.55;1704320;81;21115;-60
2021/07/02 07:51:32;;;;;;;9.45;4.35;;;;;;;20.93;66.66;94121.91;1701334;83;21031;-63
2021/07/02 07:53:46;;;;;;;8.28;3.67;;;;;;;21.05;65.92;94111.31;1700905;82;22286;-60
2021/07/02 07:56:13;;;;;;;7.78;3.02;;;;;;;21.15;65.16;94119.45;1705010;82;20981;-58
2021/07/02 07:58:39;;;;;;;18.15;4.33;;;;;;;21.16;64.91;94118.16;1698927;82;21653;-57
2021/07/02 08:01:09;;;;;;;7.72;3.30;;;;;;;21.18;64.27;94113.56;1699518;82;21080;-58
2021/07/02 08:03:36;;;;;;;7.10;3.52;;;;;;;21.26;64.36;94108.11;1703537;82;21033;-58
2021/07/02 08:06:03;;;;;;;5.15;3.05;;;;;;;21.37;64.06;94105.89;1699797;82;21950;-58
2021/07/02 08:08:30;;;;;;;9.40;3.17;;;;;;;21.49;63.43;94099.47;1711469;81;21524;-61
2021/07/02 08:10:57;;;;;;;4.78;3.22;;;;;;;21.60;62.42;94102.08;1706929;82;21596;-60
2021/07/02 08:13:28;;;;;;;5.95;3.20;;;;;;;21.65;62.22;94095.02;1705022;82;21400;-66
2021/07/02 08:15:52;;;;;;;4.90;3.25;;;;;;;21.70;62.37;94098.39;1676964;81;21153;-59
2021/07/02 08:18:19;;;;;;;14.63;6.80;;;;;;;21.83;63.02;94103.27;1710462;81;21037;-64
2021/07/02 08:20:46;;;;;;;4.72;3.58;;;;;;;22.11;64.23;94095.22;1703112;82;21612;-61
2021/07/02 08:23:13;;;;;;;3.70;3.37;;;;;;;22.42;63.64;94100.64;1715195;81;21034;-64
2021/07/02 08:25:40;;;;;;;6.83;3.45;;;;;;;22.66;62.82;94099.03;1710234;81;21138;-63
2021/07/02 08:30:53;;;;;;;5.00;3.02;;;;;;;23.00;62.61;94088.62;1712335;81;21166;-62
2021/07/02 08:33:21;;;;;;;4.70;2.72;;;;;;;23.15;61.70;94085.35;1709005;82;21041;-60
2021/07/02 08:35:48;;;;;;;5.12;2.70;;;;;;;23.34;60.61;94087.34;1707548;83;21063;-61
2021/07/02 08:38:15;;;;;;;5.10;3.60;;;;;;;23.56;60.13;94085.41;1686872;82;21138;-57
2021/07/02 08:40:42;;;;;;;18.30;7.05;;;;;;;23.77;58.73;94084.75;1698138;82;21136;-60
2021/07/02 08:43:09;;;;;;;9.08;3.35;;;;;;;23.88;58.10;94085.15;1705671;82;21109;-61
2021/07/02 08:48:08;;;;;;;3.87;2.65;;;;;;;24.14;58.84;94080.88;1704006;81;21014;-57
2021/07/02 08:50:37;;;;;;;6.05;2.75;;;;;;;24.29;56.96;94081.63;1702955;82;21123;-59
2021/07/02 08:53:05;;;;;;;4.47;2.72;;;;;;;24.36;57.42;94078.14;1711036;81;20989;-62
2021/07/02 08:55:33;;;;;;;2.65;2.45;;;;;;;24.28;55.41;94085.75;1703421;82;21042;-59
2021/07/02 08:58:00;;;;;;;5.80;3.10;;;;;;;24.18;55.68;94081.95;1706847;82;21039;-58
2021/07/02 09:00:28;;;;;;;3.72;2.60;;;;;;;24.09;54.01;94076.17;1694337;81;21016;-60
2021/07/02 09:02:55;;;;;;;3.50;2.50;;;;;;;24.02;55.84;94069.82;1705069;81;21138;-60
2021/07/02 09:05:35;;;;;;;5.30;2.75;;;;;;;23.91;56.30;94068.63;1710712;82;21982;-60
2021/07/02 09:08:15;;;;;;;3.37;2.62;;;;;;;23.75;56.78;94066.95;1704632;82;21042;-61
2021/07/02 09:10:42;;;;;;;3.62;3.22;;;;;;;23.60;56.89;94067.55;1715567;81;21018;-60
2021/07/02 09:13:11;;;;;;;5.10;2.98;;;;;;;23.60;57.88;94068.95;1701942;82;21608;-62
2021/07/02 09:15:48;;;;;;;4.65;2.80;;;;;;;23.72;58.60;94058.22;1666212;84;21054;-60
2021/07/02 09:18:16;;;;;;;3.40;3.02;;;;;;;23.90;58.54;94055.87;1642534;85;21048;-61
2021/07/02 09:20:45;;;;;;;4.12;2.70;;;;;;;24.05;56.75;94058.88;1658073;83;21021;-63
2021/07/02 09:23:14;;;;;;;4.28;2.75;;;;;;;24.19;55.65;94052.53;1672296;83;20996;-63
2021/07/02 09:25:53;;;;;;;13.78;3.15;;;;;;;24.31;54.37;94048.86;1669978;84;21875;-66
2021/07/02 09:28:21;;;;;;;4.30;2.90;;;;;;;24.36;54.50;94043.72;1663532;83;21783;-61
2021/07/02 09:30:49;;;;;;;11.78;4.55;;;;;;;24.40;55.15;94037.75;1675686;83;21034;-64
2021/07/02 09:33:18;;;;;;;4.03;3.10;;;;;;;24.42;54.60;94037.95;1662725;84;21068;-67
2021/07/02 09:35:49;;;;;;;3.70;2.58;;;;;;;24.54;55.90;94040.59;1705653;81;21130;-63
2021/07/02 09:38:17;;;;;;;4.97;3.42;;;;;;;24.55;53.62;94036.46;1698270;81;21018;-62
2021/07/02 09:40:48;;;;;;;4.47;3.45;;;;;;;24.47;53.46;94032.81;1707244;81;21463;-60
2021/07/02 09:43:18;;;;;;;6.62;4.28;;;;;;;24.54;55.28;94032.15;1714152;81;21079;-65
2021/07/02 09:45:52;;;;;;;5.80;2.62;;;;;;;24.72;54.45;94024.07;1674241;83;20979;-60
2021/07/02 09:48:27;;;;;;;2.87;2.55;;;;;;;25.00;55.14;94023.97;1660873;84;21116;-61
2021/07/02 09:51:05;;;;;;;7.22;3.85;;;;;;;25.29;52.86;94010.66;1685039;82;21117;-62
2021/07/02 09:53:35;;;;;;;5.12;3.70;;;;;;;25.49;51.79;94009.00;1707723;82;21123;-57
2021/07/02 09:56:07;;;;;;;7.10;3.92;;;;;;;25.64;51.83;94010.43;1706915;81;21061;-56
2021/07/02 09:58:39;;;;;;;8.00;3.70;;;;;;;25.80;50.69;94004.86;1687544;83;21016;-59
2021/07/02 10:01:09;;;;;;;3.52;3.00;;;;;;;25.94;50.87;93999.93;1704981;82;21002;-64
2021/07/02 10:03:42;;;;;;;12.77;5.60;;;;;;;26.14;49.27;93991.23;1694359;82;21045;-63
2021/07/02 10:06:19;;;;;;;5.80;3.00;;;;;;;26.28;48.16;93984.75;1708964;82;22199;-59
2021/07/02 10:08:48;;;;;;;3.02;2.25;;;;;;;26.30;48.51;93978.61;1712065;82;20994;-59
2021/07/02 10:11:15;;;;;;;5.40;2.92;;;;;;;26.19;48.59;93976.20;1711227;82;21147;-62
2021/07/02 10:13:44;;;;;;;9.60;4.25;;;;;;;26.04;48.68;93967.77;1706656;81;22228;-63
2021/07/02 10:16:13;;;;;;;5.55;3.00;;;;;;;25.99;47.48;93977.19;1711795;82;21002;-58
2021/07/02 10:18:52;;;;;;;9.75;4.87;;;;;;;26.04;47.03;93972.00;1701296;82;21960;-59
2021/07/02 10:21:20;;;;;;;4.97;3.37;;;;;;;26.04;48.55;93966.36;1708601;81;21042;-61
2021/07/02 10:23:49;;;;;;;7.87;5.08;;;;;;;25.97;48.30;93972.02;1706645;82;21001;-62
2021/07/02 10:26:17;;;;;;;6.03;3.15;;;;;;;25.84;48.61;93962.34;1713040;81;21033;-60
2021/07/02 10:28:44;;;;;;;5.40;2.80;;;;;;;25.80;49.47;93968.99;1700770;81;21631;-64
2021/07/02 10:31:12;;;;;;;2.87;2.67;;;;;;;25.69;48.65;93963.73;1698081;83;21217;-66
2021/07/02 10:33:42;;;;;;;4.10;3.20;;;;;;;25.62;49.79;93972.17;1704889;82;21097;-59
2021/07/02 10:36:11;;;;;;;3.67;2.62;;;;;;;25.54;49.20;93965.80;1706841;82;28434;-59
2021/07/02 10:38:42;;;;;;;5.03;3.20;;;;;;;25.35;49.05;93966.19;1707845;82;21121;-63
2021/07/02 10:41:21;;;;;;;4.72;2.62;;;;;;;25.19;48.66;93966.70;1730363;81;21052;-63
2021/07/02 10:44:10;;;;;;;5.05;2.55;;;;;;;25.01;49.70;93967.77;1705328;82;21839;-61
2021/07/02 10:46:48;;;;;;;3.45;2.60;;;;;;;24.84;49.87;93960.50;1711135;82;22135;-58
2021/07/02 10:49:15;;;;;;;4.50;2.52;;;;;;;24.67;49.99;93965.89;1657276;83;21926;-62
2021/07/02 10:51:48;;;;;;;3.22;2.80;;;;;;;24.59;51.00;93960.23;1718404;82;21097;-61
2021/07/02 10:54:21;;;;;;;4.72;3.02;;;;;;;24.59;50.79;93961.64;1701783;83;21251;-61
2021/07/02 10:57:00;;;;;;;6.83;3.15;;;;;;;24.50;49.91;93962.78;1679633;83;21494;-58
2021/07/02 10:59:46;;;;;;;4.47;3.33;;;;;;;24.41;50.67;93954.22;1692885;82;21039;-58
2021/07/02 11:02:23;;;;;;;6.70;3.40;;;;;;;24.32;51.85;93958.97;1710872;82;21086;-59
2021/07/02 11:04:56;;;;;;;6.62;4.20;;;;;;;24.31;51.90;93954.66;1703684;82;21091;-58
2021/07/02 11:07:30;;;;;;;10.00;5.42;;;;;;;24.19;53.24;93954.88;1705614;82;21061;-56
2021/07/02 11:10:03;;;;;;;9.85;5.70;;;;;;;24.06;53.15;93952.84;1698978;82;21026;-59
2021/07/02 11:12:47;;;;;;;10.73;6.40;;;;;;;23.98;53.34;93950.62;1692804;82;20977;-58
2021/07/02 11:15:18;;;;;;;10.75;5.90;;;;;;;23.90;54.00;93951.23;1711287;81;21513;-57
2021/07/02 11:17:50;;;;;;;5.35;4.53;;;;;;;23.79;54.57;93945.88;1707331;82;21125;-58
2021/07/02 11:20:25;;;;;;;7.28;3.70;;;;;;;23.71;53.99;93946.50;1694396;82;21104;-57
2021/07/02 11:23:01;;;;;;;9.55;3.87;;;;;;;23.66;54.46;93948.05;1703393;82;21160;-61
2021/07/02 11:25:43;;;;;;;6.28;3.95;;;;;;;23.65;54.88;93937.48;1716731;82;21937;-56
2021/07/02 11:28:11;;;;;;;4.87;3.87;;;;;;;23.73;55.37;93937.53;1695532;82;21223;-60
2021/07/02 11:30:42;;;;;;;4.08;3.60;;;;;;;23.77;55.16;93940.06;1713485;80;21060;-60
2021/07/02 11:33:15;;;;;;;8.43;4.10;;;;;;;23.79;54.74;93939.53;1711836;82;21102;-59
2021/07/02 11:35:57;;;;;;;;;;;;;;;23.75;54.39;93943.34;1730436;82;21313;-63
2021/07/02 11:38:28;;;;;;;4.00;3.70;;;;;;;23.68;54.85;93942.63;1698286;81;20137;-60
2021/07/02 11:40:59;;;;;;;6.20;3.98;;;;;;;23.55;54.65;93943.48;1701437;81;21064;-57
2021/07/02 11:43:41;;;;;;;5.62;4.03;;;;;;;23.44;55.27;93940.97;1705532;82;21080;-60